Tum Tum, Washington
Current Conditions -  °F | °C
As of 2:53 AM on Friday 24 Oct 2014 (Local Time) from KDEW Reporting Station
Clear Clear  
Wind Chill: 39°   Ceiling: Unl
Heat Index: 43°   Visibility: 10mi
Dew Point: 41°   Wind: 7mph
Humidity: 93%   Direction: 190°S
Pressure: 30.03"   Gusts: NA
Location:  47.9026°N, 117.708°W
Report Text: KDEW 240953Z AUTO 19006KT 10SM CLR 06/05 A3003 RMK AO2 SLP173 T00610050
Loading
Personal Weather Stations






























Interactive Weather Map
Tropical Storm Tracking
New forecast layout! Learn more

10-Day Weather Forecast

Advertisements
Track Severe Weather on mobile